sensor_id;sensor_type;location;lat;lon;timestamp;P1;durP1;ratioP1;P2;durP2;ratioP2
52940;SDS011;62001;53.366;6.636;2022-11-18T00:00:46;33.57;;;27.47;;
52940;SDS011;62001;53.366;6.636;2022-11-18T00:03:12;36.90;;;27.27;;
52940;SDS011;62001;53.366;6.636;2022-11-18T00:05:38;37.47;;;26.83;;
52940;SDS011;62001;53.366;6.636;2022-11-18T00:08:03;34.43;;;26.07;;
52940;SDS011;62001;53.366;6.636;2022-11-18T00:10:30;34.00;;;25.87;;
52940;SDS011;62001;53.366;6.636;2022-11-18T00:12:56;34.50;;;25.33;;
52940;SDS011;62001;53.366;6.636;2022-11-18T00:15:40;32.33;;;25.03;;
52940;SDS011;62001;53.366;6.636;2022-11-18T00:18:06;34.83;;;24.73;;
52940;SDS011;62001;53.366;6.636;2022-11-18T00:20:32;32.07;;;25.00;;
52940;SDS011;62001;53.366;6.636;2022-11-18T00:22:59;30.93;;;23.27;;
52940;SDS011;62001;53.366;6.636;2022-11-18T00:25:25;31.17;;;23.03;;
52940;SDS011;62001;53.366;6.636;2022-11-18T00:27:52;31.67;;;23.33;;
52940;SDS011;62001;53.366;6.636;2022-11-18T00:30:18;28.70;;;21.87;;
52940;SDS011;62001;53.366;6.636;2022-11-18T00:32:44;28.53;;;20.57;;
52940;SDS011;62001;53.366;6.636;2022-11-18T00:35:10;30.33;;;22.27;;
52940;SDS011;62001;53.366;6.636;2022-11-18T00:37:36;29.03;;;22.23;;
52940;SDS011;62001;53.366;6.636;2022-11-18T00:40:02;29.73;;;22.07;;
52940;SDS011;62001;53.366;6.636;2022-11-18T00:42:28;30.17;;;21.77;;
52940;SDS011;62001;53.366;6.636;2022-11-18T00:45:12;32.33;;;21.97;;
52940;SDS011;62001;53.366;6.636;2022-11-18T00:47:38;33.40;;;22.27;;
52940;SDS011;62001;53.366;6.636;2022-11-18T00:50:03;34.37;;;23.00;;
52940;SDS011;62001;53.366;6.636;2022-11-18T00:52:30;36.57;;;24.30;;
52940;SDS011;62001;53.366;6.636;2022-11-18T00:54:55;34.13;;;22.73;;
52940;SDS011;62001;53.366;6.636;2022-11-18T00:57:21;35.93;;;22.73;;
52940;SDS011;62001;53.366;6.636;2022-11-18T00:59:47;34.97;;;22.23;;
52940;SDS011;62001;53.366;6.636;2022-11-18T01:02:13;37.33;;;22.23;;
52940;SDS011;62001;53.366;6.636;2022-11-18T01:04:38;38.00;;;23.27;;
52940;SDS011;62001;53.366;6.636;2022-11-18T01:07:04;36.17;;;23.87;;
52940;SDS011;62001;53.366;6.636;2022-11-18T01:09:30;35.57;;;23.97;;
52940;SDS011;62001;53.366;6.636;2022-11-18T01:11:56;37.47;;;24.37;;
52940;SDS011;62001;53.366;6.636;2022-11-18T01:14:58;40.37;;;23.37;;
52940;SDS011;62001;53.366;6.636;2022-11-18T01:17:24;38.43;;;23.43;;
52940;SDS011;62001;53.366;6.636;2022-11-18T01:19:49;41.03;;;23.90;;
52940;SDS011;62001;53.366;6.636;2022-11-18T01:22:15;42.47;;;23.80;;
52940;SDS011;62001;53.366;6.636;2022-11-18T01:24:41;41.20;;;24.00;;
52940;SDS011;62001;53.366;6.636;2022-11-18T01:27:07;42.47;;;23.60;;
52940;SDS011;62001;53.366;6.636;2022-11-18T01:29:32;41.40;;;24.93;;
52940;SDS011;62001;53.366;6.636;2022-11-18T01:31:58;42.00;;;25.03;;
52940;SDS011;62001;53.366;6.636;2022-11-18T01:34:26;41.20;;;24.13;;
52940;SDS011;62001;53.366;6.636;2022-11-18T01:36:53;41.67;;;23.70;;
52940;SDS011;62001;53.366;6.636;2022-11-18T01:39:20;39.70;;;23.00;;
52940;SDS011;62001;53.366;6.636;2022-11-18T01:41:46;41.50;;;23.57;;
52940;SDS011;62001;53.366;6.636;2022-11-18T01:47:15;41.70;;;23.63;;
52940;SDS011;62001;53.366;6.636;2022-11-18T01:49:41;38.13;;;23.27;;
52940;SDS011;62001;53.366;6.636;2022-11-18T01:52:07;36.53;;;22.20;;
52940;SDS011;62001;53.366;6.636;2022-11-18T01:54:35;36.80;;;21.63;;
52940;SDS011;62001;53.366;6.636;2022-11-18T01:57:07;31.87;;;20.00;;
52940;SDS011;62001;53.366;6.636;2022-11-18T01:59:41;39.97;;;20.90;;
52940;SDS011;62001;53.366;6.636;2022-11-18T02:02:11;38.00;;;21.90;;
52940;SDS011;62001;53.366;6.636;2022-11-18T02:04:40;40.27;;;21.33;;
52940;SDS011;62001;53.366;6.636;2022-11-18T02:07:08;37.57;;;21.60;;
52940;SDS011;62001;53.366;6.636;2022-11-18T02:09:36;36.30;;;21.30;;
52940;SDS011;62001;53.366;6.636;2022-11-18T02:12:02;36.43;;;20.67;;
52940;SDS011;62001;53.366;6.636;2022-11-18T02:14:34;34.17;;;19.23;;
52940;SDS011;62001;53.366;6.636;2022-11-18T02:17:06;37.07;;;20.47;;
52940;SDS011;62001;53.366;6.636;2022-11-18T02:28:04;40.70;;;22.67;;
52940;SDS011;62001;53.366;6.636;2022-11-18T02:30:59;46.80;;;22.37;;
52940;SDS011;62001;53.366;6.636;2022-11-18T02:36:13;43.80;;;24.23;;
52940;SDS011;62001;53.366;6.636;2022-11-18T02:38:44;41.80;;;22.67;;
52940;SDS011;62001;53.366;6.636;2022-11-18T02:41:15;42.50;;;22.87;;
52940;SDS011;62001;53.366;6.636;2022-11-18T02:43:46;48.20;;;23.70;;
52940;SDS011;62001;53.366;6.636;2022-11-18T02:46:24;46.77;;;22.87;;
52940;SDS011;62001;53.366;6.636;2022-11-18T02:48:54;46.60;;;22.53;;
52940;SDS011;62001;53.366;6.636;2022-11-18T02:51:24;40.90;;;22.80;;
52940;SDS011;62001;53.366;6.636;2022-11-18T02:53:53;43.73;;;21.60;;
52940;SDS011;62001;53.366;6.636;2022-11-18T02:56:21;45.53;;;23.00;;
52940;SDS011;62001;53.366;6.636;2022-11-18T02:58:50;40.23;;;22.60;;
52940;SDS011;62001;53.366;6.636;2022-11-18T03:01:17;44.73;;;23.80;;
52940;SDS011;62001;53.366;6.636;2022-11-18T03:03:45;48.35;;;25.17;;
52940;SDS011;62001;53.366;6.636;2022-11-18T03:11:28;46.63;;;23.57;;
52940;SDS011;62001;53.366;6.636;2022-11-18T03:16:31;46.37;;;23.13;;
52940;SDS011;62001;53.366;6.636;2022-11-18T03:19:28;44.90;;;23.77;;
52940;SDS011;62001;53.366;6.636;2022-11-18T03:22:10;43.40;;;23.47;;
52940;SDS011;62001;53.366;6.636;2022-11-18T03:24:57;39.42;;;22.60;;
52940;SDS011;62001;53.366;6.636;2022-11-18T03:27:26;46.33;;;23.70;;
52940;SDS011;62001;53.366;6.636;2022-11-18T03:30:05;42.63;;;22.63;;
52940;SDS011;62001;53.366;6.636;2022-11-18T03:32:35;38.30;;;21.70;;
52940;SDS011;62001;53.366;6.636;2022-11-18T03:35:07;39.63;;;22.90;;
52940;SDS011;62001;53.366;6.636;2022-11-18T03:37:42;43.70;;;22.87;;
52940;SDS011;62001;53.366;6.636;2022-11-18T03:40:11;42.57;;;23.30;;
52940;SDS011;62001;53.366;6.636;2022-11-18T03:42:49;38.83;;;22.33;;
52940;SDS011;62001;53.366;6.636;2022-11-18T03:45:44;41.43;;;22.87;;
52940;SDS011;62001;53.366;6.636;2022-11-18T03:48:17;37.17;;;21.30;;
52940;SDS011;62001;53.366;6.636;2022-11-18T03:50:45;40.90;;;22.33;;
52940;SDS011;62001;53.366;6.636;2022-11-18T03:53:16;34.37;;;20.40;;
52940;SDS011;62001;53.366;6.636;2022-11-18T03:55:46;35.80;;;20.27;;
52940;SDS011;62001;53.366;6.636;2022-11-18T04:01:09;35.90;;;20.23;;
52940;SDS011;62001;53.366;6.636;2022-11-18T04:03:38;41.83;;;20.73;;
52940;SDS011;62001;53.366;6.636;2022-11-18T04:06:22;34.43;;;20.03;;
52940;SDS011;62001;53.366;6.636;2022-11-18T04:08:55;36.20;;;19.87;;
52940;SDS011;62001;53.366;6.636;2022-11-18T04:14:18;35.63;;;19.77;;
52940;SDS011;62001;53.366;6.636;2022-11-18T04:16:47;38.07;;;20.40;;
52940;SDS011;62001;53.366;6.636;2022-11-18T04:19:16;38.20;;;20.03;;
52940;SDS011;62001;53.366;6.636;2022-11-18T04:21:43;39.97;;;20.80;;
52940;SDS011;62001;53.366;6.636;2022-11-18T04:24:09;33.33;;;19.23;;
52940;SDS011;62001;53.366;6.636;2022-11-18T04:26:34;34.83;;;18.87;;
52940;SDS011;62001;53.366;6.636;2022-11-18T04:29:00;36.67;;;18.80;;
52940;SDS011;62001;53.366;6.636;2022-11-18T04:31:26;36.27;;;18.97;;
52940;SDS011;62001;53.366;6.636;2022-11-18T04:33:52;33.07;;;18.60;;
52940;SDS011;62001;53.366;6.636;2022-11-18T04:36:17;35.30;;;19.47;;
52940;SDS011;62001;53.366;6.636;2022-11-18T04:38:44;30.63;;;17.57;;
52940;SDS011;62001;53.366;6.636;2022-11-18T04:41:10;34.27;;;18.90;;
52940;SDS011;62001;53.366;6.636;2022-11-18T04:43:35;31.47;;;17.90;;
52940;SDS011;62001;53.366;6.636;2022-11-18T04:46:01;30.67;;;17.50;;
52940;SDS011;62001;53.366;6.636;2022-11-18T04:48:27;31.80;;;18.23;;
52940;SDS011;62001;53.366;6.636;2022-11-18T04:50:55;33.70;;;19.60;;
52940;SDS011;62001;53.366;6.636;2022-11-18T04:53:21;31.23;;;17.20;;
52940;SDS011;62001;53.366;6.636;2022-11-18T04:55:47;29.90;;;17.90;;
52940;SDS011;62001;53.366;6.636;2022-11-18T04:58:13;30.30;;;18.23;;
52940;SDS011;62001;53.366;6.636;2022-11-18T05:00:39;29.03;;;17.60;;
52940;SDS011;62001;53.366;6.636;2022-11-18T05:03:05;30.23;;;17.27;;
52940;SDS011;62001;53.366;6.636;2022-11-18T05:05:32;30.63;;;17.70;;
52940;SDS011;62001;53.366;6.636;2022-11-18T05:07:58;29.97;;;17.67;;
52940;SDS011;62001;53.366;6.636;2022-11-18T05:10:24;29.63;;;18.27;;
52940;SDS011;62001;53.366;6.636;2022-11-18T05:12:50;31.43;;;18.63;;
52940;SDS011;62001;53.366;6.636;2022-11-18T05:15:19;30.17;;;18.57;;
52940;SDS011;62001;53.366;6.636;2022-11-18T05:17:48;29.63;;;17.53;;
52940;SDS011;62001;53.366;6.636;2022-11-18T05:20:14;30.83;;;16.90;;
52940;SDS011;62001;53.366;6.636;2022-11-18T05:22:40;35.07;;;17.80;;
52940;SDS011;62001;53.366;6.636;2022-11-18T05:25:06;32.63;;;17.90;;
52940;SDS011;62001;53.366;6.636;2022-11-18T05:27:33;35.17;;;17.50;;
52940;SDS011;62001;53.366;6.636;2022-11-18T05:29:58;28.70;;;17.63;;
52940;SDS011;62001;53.366;6.636;2022-11-18T05:32:24;30.87;;;17.93;;
52940;SDS011;62001;53.366;6.636;2022-11-18T05:34:50;36.20;;;18.77;;
52940;SDS011;62001;53.366;6.636;2022-11-18T05:37:16;32.97;;;18.70;;
52940;SDS011;62001;53.366;6.636;2022-11-18T05:39:42;35.83;;;18.20;;
52940;SDS011;62001;53.366;6.636;2022-11-18T05:42:08;37.07;;;19.23;;
52940;SDS011;62001;53.366;6.636;2022-11-18T05:44:53;37.37;;;19.40;;
52940;SDS011;62001;53.366;6.636;2022-11-18T05:47:19;37.30;;;19.07;;
52940;SDS011;62001;53.366;6.636;2022-11-18T05:49:45;39.70;;;19.67;;
52940;SDS011;62001;53.366;6.636;2022-11-18T05:52:10;37.33;;;18.90;;
52940;SDS011;62001;53.366;6.636;2022-11-18T05:54:43;37.93;;;18.67;;
52940;SDS011;62001;53.366;6.636;2022-11-18T05:57:13;40.37;;;20.03;;
52940;SDS011;62001;53.366;6.636;2022-11-18T05:59:39;38.03;;;20.13;;
52940;SDS011;62001;53.366;6.636;2022-11-18T06:02:06;43.00;;;20.37;;
52940;SDS011;62001;53.366;6.636;2022-11-18T06:04:46;41.80;;;21.10;;
52940;SDS011;62001;53.366;6.636;2022-11-18T06:07:22;48.13;;;21.93;;
52940;SDS011;62001;53.366;6.636;2022-11-18T06:09:54;44.30;;;21.80;;
52940;SDS011;62001;53.366;6.636;2022-11-18T06:12:23;46.38;;;22.95;;
52940;SDS011;62001;53.366;6.636;2022-11-18T06:14:57;43.90;;;22.10;;
52940;SDS011;62001;53.366;6.636;2022-11-18T06:17:33;48.13;;;23.57;;
52940;SDS011;62001;53.366;6.636;2022-11-18T06:20:08;47.17;;;23.67;;
52940;SDS011;62001;53.366;6.636;2022-11-18T06:22:35;52.40;;;24.30;;
52940;SDS011;62001;53.366;6.636;2022-11-18T06:25:00;46.43;;;22.67;;
52940;SDS011;62001;53.366;6.636;2022-11-18T06:27:27;50.00;;;22.97;;
52940;SDS011;62001;53.366;6.636;2022-11-18T06:29:54;55.17;;;24.33;;
52940;SDS011;62001;53.366;6.636;2022-11-18T06:32:20;57.37;;;26.27;;
52940;SDS011;62001;53.366;6.636;2022-11-18T06:34:45;59.50;;;27.17;;
52940;SDS011;62001;53.366;6.636;2022-11-18T06:37:12;52.63;;;25.77;;
52940;SDS011;62001;53.366;6.636;2022-11-18T06:39:42;57.45;;;24.45;;
52940;SDS011;62001;53.366;6.636;2022-11-18T06:42:08;59.07;;;25.37;;
52940;SDS011;62001;53.366;6.636;2022-11-18T06:44:34;54.93;;;24.43;;
52940;SDS011;62001;53.366;6.636;2022-11-18T06:47:00;48.20;;;23.20;;
52940;SDS011;62001;53.366;6.636;2022-11-18T06:49:26;53.47;;;23.27;;
52940;SDS011;62001;53.366;6.636;2022-11-18T06:51:52;55.30;;;22.20;;
52940;SDS011;62001;53.366;6.636;2022-11-18T06:54:19;48.07;;;21.33;;
52940;SDS011;62001;53.366;6.636;2022-11-18T06:56:45;48.33;;;20.43;;
52940;SDS011;62001;53.366;6.636;2022-11-18T06:59:11;41.30;;;19.53;;
52940;SDS011;62001;53.366;6.636;2022-11-18T07:01:38;52.10;;;21.47;;
52940;SDS011;62001;53.366;6.636;2022-11-18T07:04:05;43.40;;;19.70;;
52940;SDS011;62001;53.366;6.636;2022-11-18T07:06:32;45.13;;;20.07;;
52940;SDS011;62001;53.366;6.636;2022-11-18T07:09:00;50.47;;;23.67;;
52940;SDS011;62001;53.366;6.636;2022-11-18T07:11:27;43.80;;;21.93;;
52940;SDS011;62001;53.366;6.636;2022-11-18T07:13:53;50.27;;;23.57;;
52940;SDS011;62001;53.366;6.636;2022-11-18T07:16:21;48.23;;;22.17;;
52940;SDS011;62001;53.366;6.636;2022-11-18T07:18:48;51.00;;;21.80;;
52940;SDS011;62001;53.366;6.636;2022-11-18T07:21:16;47.37;;;21.63;;
52940;SDS011;62001;53.366;6.636;2022-11-18T07:23:52;47.10;;;19.83;;
52940;SDS011;62001;53.366;6.636;2022-11-18T07:26:19;39.37;;;20.97;;
52940;SDS011;62001;53.366;6.636;2022-11-18T07:28:45;48.87;;;21.13;;
52940;SDS011;62001;53.366;6.636;2022-11-18T07:31:12;43.67;;;20.73;;
52940;SDS011;62001;53.366;6.636;2022-11-18T07:33:39;40.50;;;21.90;;
52940;SDS011;62001;53.366;6.636;2022-11-18T07:36:10;50.07;;;21.80;;
52940;SDS011;62001;53.366;6.636;2022-11-18T07:38:37;51.93;;;23.90;;
52940;SDS011;62001;53.366;6.636;2022-11-18T07:41:14;48.87;;;23.50;;
52940;SDS011;62001;53.366;6.636;2022-11-18T07:43:44;47.63;;;23.45;;
52940;SDS011;62001;53.366;6.636;2022-11-18T07:46:19;51.47;;;23.33;;
52940;SDS011;62001;53.366;6.636;2022-11-18T07:48:51;38.80;;;20.42;;
52940;SDS011;62001;53.366;6.636;2022-11-18T07:51:19;42.83;;;20.80;;
52940;SDS011;62001;53.366;6.636;2022-11-18T07:53:46;49.13;;;22.97;;
52940;SDS011;62001;53.366;6.636;2022-11-18T07:56:12;49.37;;;24.90;;
52940;SDS011;62001;53.366;6.636;2022-11-18T07:58:39;43.20;;;22.40;;
52940;SDS011;62001;53.366;6.636;2022-11-18T08:01:13;47.53;;;21.87;;
52940;SDS011;62001;53.366;6.636;2022-11-18T08:03:40;43.87;;;21.57;;
52940;SDS011;62001;53.366;6.636;2022-11-18T08:06:08;45.83;;;22.77;;
52940;SDS011;62001;53.366;6.636;2022-11-18T08:08:35;40.50;;;20.97;;
52940;SDS011;62001;53.366;6.636;2022-11-18T08:11:02;43.47;;;21.53;;
52940;SDS011;62001;53.366;6.636;2022-11-18T08:13:32;43.27;;;21.93;;
52940;SDS011;62001;53.366;6.636;2022-11-18T08:15:59;45.90;;;24.23;;
52940;SDS011;62001;53.366;6.636;2022-11-18T08:18:26;51.27;;;23.33;;
52940;SDS011;62001;53.366;6.636;2022-11-18T08:20:53;45.67;;;23.87;;
52940;SDS011;62001;53.366;6.636;2022-11-18T08:23:19;44.63;;;23.67;;
52940;SDS011;62001;53.366;6.636;2022-11-18T08:25:45;46.63;;;24.07;;
52940;SDS011;62001;53.366;6.636;2022-11-18T08:28:12;47.83;;;23.83;;
52940;SDS011;62001;53.366;6.636;2022-11-18T08:30:39;43.43;;;23.17;;
52940;SDS011;62001;53.366;6.636;2022-11-18T08:33:05;47.77;;;24.13;;
52940;SDS011;62001;53.366;6.636;2022-11-18T08:35:31;45.50;;;23.67;;
52940;SDS011;62001;53.366;6.636;2022-11-18T08:37:58;43.13;;;24.40;;
52940;SDS011;62001;53.366;6.636;2022-11-18T08:40:23;49.13;;;25.37;;
52940;SDS011;62001;53.366;6.636;2022-11-18T08:42:50;53.60;;;26.40;;
52940;SDS011;62001;53.366;6.636;2022-11-18T08:45:15;49.93;;;27.57;;
52940;SDS011;62001;53.366;6.636;2022-11-18T08:47:41;58.37;;;30.07;;
52940;SDS011;62001;53.366;6.636;2022-11-18T08:50:08;61.57;;;31.13;;
52940;SDS011;62001;53.366;6.636;2022-11-18T08:52:35;73.03;;;35.77;;
52940;SDS011;62001;53.366;6.636;2022-11-18T08:55:02;78.10;;;36.93;;
52940;SDS011;62001;53.366;6.636;2022-11-18T08:57:28;81.73;;;38.40;;
52940;SDS011;62001;53.366;6.636;2022-11-18T08:59:54;94.43;;;41.50;;
52940;SDS011;62001;53.366;6.636;2022-11-18T09:02:20;94.37;;;41.30;;
52940;SDS011;62001;53.366;6.636;2022-11-18T09:04:47;78.67;;;36.97;;
52940;SDS011;62001;53.366;6.636;2022-11-18T09:07:14;65.17;;;34.00;;
52940;SDS011;62001;53.366;6.636;2022-11-18T09:09:44;58.42;;;31.70;;
52940;SDS011;62001;53.366;6.636;2022-11-18T09:12:10;64.17;;;32.40;;
52940;SDS011;62001;53.366;6.636;2022-11-18T09:14:42;60.47;;;30.73;;
52940;SDS011;62001;53.366;6.636;2022-11-18T09:17:11;64.80;;;32.57;;
52940;SDS011;62001;53.366;6.636;2022-11-18T09:19:38;79.10;;;38.67;;
52940;SDS011;62001;53.366;6.636;2022-11-18T09:22:05;86.07;;;39.20;;
52940;SDS011;62001;53.366;6.636;2022-11-18T09:24:32;95.13;;;46.30;;
52940;SDS011;62001;53.366;6.636;2022-11-18T09:26:58;92.47;;;43.40;;
52940;SDS011;62001;53.366;6.636;2022-11-18T09:29:26;95.83;;;44.70;;
52940;SDS011;62001;53.366;6.636;2022-11-18T09:31:52;113.30;;;47.57;;
52940;SDS011;62001;53.366;6.636;2022-11-18T09:34:19;103.03;;;45.90;;
52940;SDS011;62001;53.366;6.636;2022-11-18T09:36:45;104.63;;;45.47;;
52940;SDS011;62001;53.366;6.636;2022-11-18T09:39:10;111.33;;;44.87;;
52940;SDS011;62001;53.366;6.636;2022-11-18T09:49:29;111.57;;;43.53;;
52940;SDS011;62001;53.366;6.636;2022-11-18T09:51:55;117.20;;;45.13;;
52940;SDS011;62001;53.366;6.636;2022-11-18T09:54:26;93.68;;;40.25;;
52940;SDS011;62001;53.366;6.636;2022-11-18T09:57:00;99.43;;;41.50;;
52940;SDS011;62001;53.366;6.636;2022-11-18T09:59:29;103.83;;;40.50;;
52940;SDS011;62001;53.366;6.636;2022-11-18T10:01:57;99.73;;;40.83;;
52940;SDS011;62001;53.366;6.636;2022-11-18T10:04:47;105.40;;;42.92;;
52940;SDS011;62001;53.366;6.636;2022-11-18T10:07:21;103.07;;;41.77;;
52940;SDS011;62001;53.366;6.636;2022-11-18T10:10:11;94.77;;;39.63;;
52940;SDS011;62001;53.366;6.636;2022-11-18T10:12:48;100.60;;;39.80;;
52940;SDS011;62001;53.366;6.636;2022-11-18T10:15:37;95.10;;;39.33;;
52940;SDS011;62001;53.366;6.636;2022-11-18T10:21:13;96.47;;;40.63;;
52940;SDS011;62001;53.366;6.636;2022-11-18T10:23:53;97.63;;;39.97;;
52940;SDS011;62001;53.366;6.636;2022-11-18T10:26:34;117.93;;;45.83;;
52940;SDS011;62001;53.366;6.636;2022-11-18T10:29:01;110.37;;;41.43;;
52940;SDS011;62001;53.366;6.636;2022-11-18T10:31:28;100.70;;;41.03;;
52940;SDS011;62001;53.366;6.636;2022-11-18T10:33:58;99.57;;;39.40;;
52940;SDS011;62001;53.366;6.636;2022-11-18T10:36:26;101.53;;;42.28;;
52940;SDS011;62001;53.366;6.636;2022-11-18T10:39:10;91.40;;;35.87;;
52940;SDS011;62001;53.366;6.636;2022-11-18T10:41:40;101.07;;;40.83;;
52940;SDS011;62001;53.366;6.636;2022-11-18T10:44:54;108.47;;;43.53;;
52940;SDS011;62001;53.366;6.636;2022-11-18T10:49:55;103.30;;;44.63;;
52940;SDS011;62001;53.366;6.636;2022-11-18T10:52:23;88.97;;;38.93;;
52940;SDS011;62001;53.366;6.636;2022-11-18T10:55:06;85.23;;;36.87;;
52940;SDS011;62001;53.366;6.636;2022-11-18T10:57:39;92.83;;;40.97;;
52940;SDS011;62001;53.366;6.636;2022-11-18T11:03:00;103.40;;;43.73;;
52940;SDS011;62001;53.366;6.636;2022-11-18T11:05:39;98.17;;;43.43;;
52940;SDS011;62001;53.366;6.636;2022-11-18T11:08:05;91.77;;;41.83;;
52940;SDS011;62001;53.366;6.636;2022-11-18T11:11:01;104.07;;;46.00;;
52940;SDS011;62001;53.366;6.636;2022-11-18T11:13:28;102.63;;;44.73;;
52940;SDS011;62001;53.366;6.636;2022-11-18T11:15:57;80.13;;;39.13;;
52940;SDS011;62001;53.366;6.636;2022-11-18T11:18:31;82.73;;;37.77;;
52940;SDS011;62001;53.366;6.636;2022-11-18T11:21:16;68.20;;;35.83;;
52940;SDS011;62001;53.366;6.636;2022-11-18T11:23:44;71.83;;;35.93;;
52940;SDS011;62001;53.366;6.636;2022-11-18T11:26:20;85.07;;;39.93;;
52940;SDS011;62001;53.366;6.636;2022-11-18T11:31:46;83.23;;;39.40;;
52940;SDS011;62001;53.366;6.636;2022-11-18T11:34:19;76.20;;;34.70;;
52940;SDS011;62001;53.366;6.636;2022-11-18T11:36:59;75.80;;;35.20;;
52940;SDS011;62001;53.366;6.636;2022-11-18T11:59:07;68.43;;;33.50;;
52940;SDS011;62001;53.366;6.636;2022-11-18T12:07:14;76.27;;;36.50;;
52940;SDS011;62001;53.366;6.636;2022-11-18T12:10:07;79.20;;;38.40;;
52940;SDS011;62001;53.366;6.636;2022-11-18T12:18:38;78.80;;;38.42;;
52940;SDS011;62001;53.366;6.636;2022-11-18T12:26:58;86.27;;;42.57;;
52940;SDS011;62001;53.366;6.636;2022-11-18T12:32:37;84.30;;;39.47;;
52940;SDS011;62001;53.366;6.636;2022-11-18T12:46:13;82.37;;;40.40;;
52940;SDS011;62001;53.366;6.636;2022-11-18T12:48:55;79.27;;;37.27;;
52940;SDS011;62001;53.366;6.636;2022-11-18T12:53:49;75.73;;;40.10;;
52940;SDS011;62001;53.366;6.636;2022-11-18T12:58:49;78.17;;;39.07;;
52940;SDS011;62001;53.366;6.636;2022-11-18T13:01:23;92.83;;;42.53;;
52940;SDS011;62001;53.366;6.636;2022-11-18T13:03:52;92.43;;;45.40;;
52940;SDS011;62001;53.366;6.636;2022-11-18T13:06:34;93.37;;;45.83;;
52940;SDS011;62001;53.366;6.636;2022-11-18T13:09:03;86.13;;;42.73;;
52940;SDS011;62001;53.366;6.636;2022-11-18T13:11:32;96.77;;;48.97;;
52940;SDS011;62001;53.366;6.636;2022-11-18T13:14:19;93.33;;;45.90;;
52940;SDS011;62001;53.366;6.636;2022-11-18T13:17:25;99.90;;;47.33;;
52940;SDS011;62001;53.366;6.636;2022-11-18T13:22:59;76.10;;;38.93;;
52940;SDS011;62001;53.366;6.636;2022-11-18T13:25:43;76.73;;;39.80;;
52940;SDS011;62001;53.366;6.636;2022-11-18T13:30:43;81.33;;;41.93;;
52940;SDS011;62001;53.366;6.636;2022-11-18T13:33:34;89.17;;;44.87;;
52940;SDS011;62001;53.366;6.636;2022-11-18T13:36:02;83.87;;;42.37;;
52940;SDS011;62001;53.366;6.636;2022-11-18T13:38:37;77.87;;;38.83;;
52940;SDS011;62001;53.366;6.636;2022-11-18T13:41:13;71.17;;;39.73;;
52940;SDS011;62001;53.366;6.636;2022-11-18T13:43:48;76.80;;;40.83;;
52940;SDS011;62001;53.366;6.636;2022-11-18T13:46:15;75.20;;;40.23;;
52940;SDS011;62001;53.366;6.636;2022-11-18T13:48:54;67.68;;;35.65;;
52940;SDS011;62001;53.366;6.636;2022-11-18T13:51:22;75.13;;;40.93;;
52940;SDS011;62001;53.366;6.636;2022-11-18T13:53:48;80.03;;;42.40;;
52940;SDS011;62001;53.366;6.636;2022-11-18T14:01:16;68.70;;;40.33;;
52940;SDS011;62001;53.366;6.636;2022-11-18T14:03:48;80.00;;;43.83;;
52940;SDS011;62001;53.366;6.636;2022-11-18T14:06:36;78.03;;;42.97;;
52940;SDS011;62001;53.366;6.636;2022-11-18T14:12:04;82.07;;;41.27;;
52940;SDS011;62001;53.366;6.636;2022-11-18T14:14:37;66.60;;;38.60;;
52940;SDS011;62001;53.366;6.636;2022-11-18T14:17:25;68.67;;;39.30;;
52940;SDS011;62001;53.366;6.636;2022-11-18T14:19:52;70.50;;;38.63;;
52940;SDS011;62001;53.366;6.636;2022-11-18T14:22:21;69.27;;;39.37;;
52940;SDS011;62001;53.366;6.636;2022-11-18T14:29:57;61.17;;;35.20;;
52940;SDS011;62001;53.366;6.636;2022-11-18T14:32:26;53.60;;;30.47;;
52940;SDS011;62001;53.366;6.636;2022-11-18T14:35:00;53.03;;;33.03;;
52940;SDS011;62001;53.366;6.636;2022-11-18T14:37:26;58.33;;;34.40;;
52940;SDS011;62001;53.366;6.636;2022-11-18T14:39:53;65.37;;;39.03;;
52940;SDS011;62001;53.366;6.636;2022-11-18T14:42:20;69.20;;;39.77;;
52940;SDS011;62001;53.366;6.636;2022-11-18T14:44:47;70.73;;;41.27;;
52940;SDS011;62001;53.366;6.636;2022-11-18T14:47:28;65.13;;;39.90;;
52940;SDS011;62001;53.366;6.636;2022-11-18T14:49:54;65.10;;;38.40;;
52940;SDS011;62001;53.366;6.636;2022-11-18T14:52:20;59.80;;;36.83;;
52940;SDS011;62001;53.366;6.636;2022-11-18T14:54:46;52.43;;;33.73;;
52940;SDS011;62001;53.366;6.636;2022-11-18T14:57:13;56.80;;;34.23;;
52940;SDS011;62001;53.366;6.636;2022-11-18T14:59:41;58.07;;;34.80;;
52940;SDS011;62001;53.366;6.636;2022-11-18T15:02:14;58.23;;;36.63;;
52940;SDS011;62001;53.366;6.636;2022-11-18T15:04:41;63.97;;;37.83;;
52940;SDS011;62001;53.366;6.636;2022-11-18T15:07:13;63.00;;;39.73;;
52940;SDS011;62001;53.366;6.636;2022-11-18T15:09:40;68.63;;;39.67;;
52940;SDS011;62001;53.366;6.636;2022-11-18T15:12:07;63.90;;;38.20;;
52940;SDS011;62001;53.366;6.636;2022-11-18T15:14:35;56.17;;;35.83;;
52940;SDS011;62001;53.366;6.636;2022-11-18T15:17:01;51.13;;;32.80;;
52940;SDS011;62001;53.366;6.636;2022-11-18T15:19:27;48.13;;;30.60;;
52940;SDS011;62001;53.366;6.636;2022-11-18T15:21:53;49.43;;;31.97;;
52940;SDS011;62001;53.366;6.636;2022-11-18T15:24:19;48.30;;;31.53;;
52940;SDS011;62001;53.366;6.636;2022-11-18T15:26:46;50.43;;;31.23;;
52940;SDS011;62001;53.366;6.636;2022-11-18T15:29:19;44.60;;;28.70;;
52940;SDS011;62001;53.366;6.636;2022-11-18T15:31:47;40.80;;;27.47;;
52940;SDS011;62001;53.366;6.636;2022-11-18T15:34:13;42.63;;;26.90;;
52940;SDS011;62001;53.366;6.636;2022-11-18T15:36:40;44.17;;;27.57;;
52940;SDS011;62001;53.366;6.636;2022-11-18T15:39:08;44.87;;;29.13;;
52940;SDS011;62001;53.366;6.636;2022-11-18T15:41:34;44.47;;;28.97;;
52940;SDS011;62001;53.366;6.636;2022-11-18T15:44:02;40.43;;;27.87;;
52940;SDS011;62001;53.366;6.636;2022-11-18T15:46:29;41.93;;;26.87;;
52940;SDS011;62001;53.366;6.636;2022-11-18T15:48:57;41.37;;;27.33;;
52940;SDS011;62001;53.366;6.636;2022-11-18T15:51:24;40.00;;;27.13;;
52940;SDS011;62001;53.366;6.636;2022-11-18T15:53:51;41.67;;;28.20;;
52940;SDS011;62001;53.366;6.636;2022-11-18T15:58:56;40.53;;;28.53;;
52940;SDS011;62001;53.366;6.636;2022-11-18T16:01:30;42.43;;;28.87;;
52940;SDS011;62001;53.366;6.636;2022-11-18T16:03:58;44.03;;;30.03;;
52940;SDS011;62001;53.366;6.636;2022-11-18T16:06:24;43.57;;;29.87;;
52940;SDS011;62001;53.366;6.636;2022-11-18T16:08:50;44.90;;;29.53;;
52940;SDS011;62001;53.366;6.636;2022-11-18T16:11:17;42.03;;;29.57;;
52940;SDS011;62001;53.366;6.636;2022-11-18T16:14:02;42.00;;;28.77;;
52940;SDS011;62001;53.366;6.636;2022-11-18T16:16:29;45.60;;;30.23;;
52940;SDS011;62001;53.366;6.636;2022-11-18T16:18:56;44.63;;;30.00;;
52940;SDS011;62001;53.366;6.636;2022-11-18T16:21:23;45.50;;;31.43;;
52940;SDS011;62001;53.366;6.636;2022-11-18T16:23:52;48.03;;;31.87;;
52940;SDS011;62001;53.366;6.636;2022-11-18T16:26:19;48.23;;;32.93;;
52940;SDS011;62001;53.366;6.636;2022-11-18T16:28:45;50.17;;;32.60;;
52940;SDS011;62001;53.366;6.636;2022-11-18T16:31:10;52.67;;;33.40;;
52940;SDS011;62001;53.366;6.636;2022-11-18T16:33:55;51.07;;;33.93;;
52940;SDS011;62001;53.366;6.636;2022-11-18T16:36:24;49.70;;;33.47;;
52940;SDS011;62001;53.366;6.636;2022-11-18T16:38:51;50.15;;;33.35;;
52940;SDS011;62001;53.366;6.636;2022-11-18T16:41:17;51.47;;;34.47;;